sensor_id;sensor_type;location;lat;lon;timestamp;P1;durP1;ratioP1;P2;durP2;ratioP2
8423;SDS011;4249;49.072;9.770;2022-10-15T00:01:03;1.50;;;1.40;;
8423;SDS011;4249;49.072;9.770;2022-10-15T00:03:51;1.93;;;1.40;;
8423;SDS011;4249;49.072;9.770;2022-10-15T00:06:40;2.07;;;1.37;;
8423;SDS011;4249;49.072;9.770;2022-10-15T00:09:27;1.77;;;1.40;;
8423;SDS011;4249;49.072;9.770;2022-10-15T00:12:14;2.83;;;1.37;;
8423;SDS011;4249;49.072;9.770;2022-10-15T00:15:01;1.20;;;1.10;;
8423;SDS011;4249;49.072;9.770;2022-10-15T00:17:49;1.73;;;1.10;;
8423;SDS011;4249;49.072;9.770;2022-10-15T00:20:39;1.77;;;1.00;;
8423;SDS011;4249;49.072;9.770;2022-10-15T00:23:29;1.07;;;0.97;;
8423;SDS011;4249;49.072;9.770;2022-10-15T00:26:17;0.90;;;0.90;;
8423;SDS011;4249;49.072;9.770;2022-10-15T00:29:05;0.70;;;0.70;;
8423;SDS011;4249;49.072;9.770;2022-10-15T00:31:53;1.60;;;1.03;;
8423;SDS011;4249;49.072;9.770;2022-10-15T00:34:40;0.90;;;0.90;;
8423;SDS011;4249;49.072;9.770;2022-10-15T00:37:27;2.07;;;1.00;;
8423;SDS011;4249;49.072;9.770;2022-10-15T00:40:16;1.53;;;0.77;;
8423;SDS011;4249;49.072;9.770;2022-10-15T00:43:07;1.00;;;1.00;;
8423;SDS011;4249;49.072;9.770;2022-10-15T00:45:55;1.17;;;1.10;;
8423;SDS011;4249;49.072;9.770;2022-10-15T00:48:42;1.47;;;1.00;;
8423;SDS011;4249;49.072;9.770;2022-10-15T00:51:32;0.60;;;0.60;;
8423;SDS011;4249;49.072;9.770;2022-10-15T00:54:24;1.80;;;1.20;;
8423;SDS011;4249;49.072;9.770;2022-10-15T00:57:13;1.27;;;1.07;;
8423;SDS011;4249;49.072;9.770;2022-10-15T01:00:03;1.27;;;1.00;;
8423;SDS011;4249;49.072;9.770;2022-10-15T01:02:52;1.77;;;1.03;;
8423;SDS011;4249;49.072;9.770;2022-10-15T01:05:39;5.13;;;1.20;;
8423;SDS011;4249;49.072;9.770;2022-10-15T01:08:29;1.27;;;1.00;;
8423;SDS011;4249;49.072;9.770;2022-10-15T01:11:20;0.77;;;0.70;;
8423;SDS011;4249;49.072;9.770;2022-10-15T01:14:26;0.90;;;0.90;;
8423;SDS011;4249;49.072;9.770;2022-10-15T01:17:19;0.93;;;0.60;;
8423;SDS011;4249;49.072;9.770;2022-10-15T01:20:18;1.93;;;0.90;;
8423;SDS011;4249;49.072;9.770;2022-10-15T01:23:34;1.27;;;0.80;;
8423;SDS011;4249;49.072;9.770;2022-10-15T01:26:52;1.63;;;0.83;;
8423;SDS011;4249;49.072;9.770;2022-10-15T01:30:01;1.27;;;0.70;;
8423;SDS011;4249;49.072;9.770;2022-10-15T01:33:23;1.37;;;0.90;;
8423;SDS011;4249;49.072;9.770;2022-10-15T01:36:14;0.70;;;0.70;;
8423;SDS011;4249;49.072;9.770;2022-10-15T01:39:05;0.80;;;0.73;;
8423;SDS011;4249;49.072;9.770;2022-10-15T01:41:59;0.50;;;0.50;;
8423;SDS011;4249;49.072;9.770;2022-10-15T01:44:50;0.97;;;0.60;;
8423;SDS011;4249;49.072;9.770;2022-10-15T01:47:44;0.73;;;0.67;;
8423;SDS011;4249;49.072;9.770;2022-10-15T01:50:36;0.70;;;0.70;;
8423;SDS011;4249;49.072;9.770;2022-10-15T01:53:27;1.37;;;0.70;;
8423;SDS011;4249;49.072;9.770;2022-10-15T01:56:17;0.50;;;0.50;;
8423;SDS011;4249;49.072;9.770;2022-10-15T01:59:07;1.13;;;0.50;;
8423;SDS011;4249;49.072;9.770;2022-10-15T02:01:55;0.90;;;0.50;;
8423;SDS011;4249;49.072;9.770;2022-10-15T02:04:42;0.87;;;0.60;;
8423;SDS011;4249;49.072;9.770;2022-10-15T02:07:32;0.60;;;0.47;;
8423;SDS011;4249;49.072;9.770;2022-10-15T02:10:30;0.40;;;0.40;;
8423;SDS011;4249;49.072;9.770;2022-10-15T02:13:27;0.60;;;0.60;;
8423;SDS011;4249;49.072;9.770;2022-10-15T02:16:21;0.60;;;0.40;;
8423;SDS011;4249;49.072;9.770;2022-10-15T02:19:11;2.07;;;0.53;;
8423;SDS011;4249;49.072;9.770;2022-10-15T02:22:04;0.90;;;0.50;;
8423;SDS011;4249;49.072;9.770;2022-10-15T02:24:57;0.63;;;0.50;;
8423;SDS011;4249;49.072;9.770;2022-10-15T02:27:49;1.77;;;0.57;;
8423;SDS011;4249;49.072;9.770;2022-10-15T02:30:39;0.40;;;0.40;;
8423;SDS011;4249;49.072;9.770;2022-10-15T02:33:29;0.20;;;0.20;;
8423;SDS011;4249;49.072;9.770;2022-10-15T02:36:17;0.30;;;0.30;;
8423;SDS011;4249;49.072;9.770;2022-10-15T02:39:05;0.50;;;0.30;;
8423;SDS011;4249;49.072;9.770;2022-10-15T02:41:56;0.25;;;0.25;;
8423;SDS011;4249;49.072;9.770;2022-10-15T02:44:44;0.20;;;0.20;;
8423;SDS011;4249;49.072;9.770;2022-10-15T02:47:31;1.60;;;0.37;;
8423;SDS011;4249;49.072;9.770;2022-10-15T02:50:18;0.28;;;0.28;;
8423;SDS011;4249;49.072;9.770;2022-10-15T02:53:05;0.40;;;0.33;;
8423;SDS011;4249;49.072;9.770;2022-10-15T02:55:53;0.50;;;0.50;;
8423;SDS011;4249;49.072;9.770;2022-10-15T02:58:41;0.43;;;0.43;;
8423;SDS011;4249;49.072;9.770;2022-10-15T03:01:28;0.50;;;0.30;;
8423;SDS011;4249;49.072;9.770;2022-10-15T03:04:15;1.60;;;0.47;;
8423;SDS011;4249;49.072;9.770;2022-10-15T03:07:03;0.40;;;0.40;;
8423;SDS011;4249;49.072;9.770;2022-10-15T03:09:50;0.20;;;0.20;;
8423;SDS011;4249;49.072;9.770;2022-10-15T03:12:37;0.30;;;0.30;;
8423;SDS011;4249;49.072;9.770;2022-10-15T03:15:26;0.40;;;0.40;;
8423;SDS011;4249;49.072;9.770;2022-10-15T03:18:13;0.30;;;0.30;;
8423;SDS011;4249;49.072;9.770;2022-10-15T03:21:00;1.20;;;0.50;;
8423;SDS011;4249;49.072;9.770;2022-10-15T03:23:47;0.37;;;0.37;;
8423;SDS011;4249;49.072;9.770;2022-10-15T03:26:34;0.47;;;0.47;;
8423;SDS011;4249;49.072;9.770;2022-10-15T03:29:21;0.47;;;0.40;;
8423;SDS011;4249;49.072;9.770;2022-10-15T03:32:10;0.50;;;0.50;;
8423;SDS011;4249;49.072;9.770;2022-10-15T03:34:57;0.40;;;0.40;;
8423;SDS011;4249;49.072;9.770;2022-10-15T03:37:44;0.30;;;0.30;;
8423;SDS011;4249;49.072;9.770;2022-10-15T03:40:32;0.43;;;0.40;;
8423;SDS011;4249;49.072;9.770;2022-10-15T03:43:21;0.53;;;0.30;;
8423;SDS011;4249;49.072;9.770;2022-10-15T03:46:09;1.53;;;0.40;;
8423;SDS011;4249;49.072;9.770;2022-10-15T03:48:58;0.93;;;0.40;;
8423;SDS011;4249;49.072;9.770;2022-10-15T03:51:45;0.63;;;0.40;;
8423;SDS011;4249;49.072;9.770;2022-10-15T03:54:32;0.40;;;0.40;;
8423;SDS011;4249;49.072;9.770;2022-10-15T03:57:19;0.30;;;0.30;;
8423;SDS011;4249;49.072;9.770;2022-10-15T04:00:07;0.30;;;0.30;;
8423;SDS011;4249;49.072;9.770;2022-10-15T04:02:55;0.73;;;0.63;;
8423;SDS011;4249;49.072;9.770;2022-10-15T04:05:49;2.33;;;0.30;;
8423;SDS011;4249;49.072;9.770;2022-10-15T04:08:36;0.20;;;0.20;;
8423;SDS011;4249;49.072;9.770;2022-10-15T04:11:23;0.20;;;0.20;;
8423;SDS011;4249;49.072;9.770;2022-10-15T04:14:11;0.40;;;0.40;;
8423;SDS011;4249;49.072;9.770;2022-10-15T04:16:58;0.47;;;0.30;;
8423;SDS011;4249;49.072;9.770;2022-10-15T04:19:45;0.40;;;0.40;;
8423;SDS011;4249;49.072;9.770;2022-10-15T04:22:33;0.20;;;0.20;;
8423;SDS011;4249;49.072;9.770;2022-10-15T04:25:22;1.77;;;0.57;;
8423;SDS011;4249;49.072;9.770;2022-10-15T04:28:09;0.30;;;0.30;;
8423;SDS011;4249;49.072;9.770;2022-10-15T04:30:57;1.70;;;0.40;;
8423;SDS011;4249;49.072;9.770;2022-10-15T04:33:46;0.10;;;0.10;;
8423;SDS011;4249;49.072;9.770;2022-10-15T04:36:34;0.23;;;0.23;;
8423;SDS011;4249;49.072;9.770;2022-10-15T04:39:23;0.40;;;0.40;;
8423;SDS011;4249;49.072;9.770;2022-10-15T04:42:10;0.20;;;0.20;;
8423;SDS011;4249;49.072;9.770;2022-10-15T04:44:57;0.30;;;0.30;;
8423;SDS011;4249;49.072;9.770;2022-10-15T04:47:44;0.30;;;0.30;;
8423;SDS011;4249;49.072;9.770;2022-10-15T04:50:31;0.20;;;0.20;;
8423;SDS011;4249;49.072;9.770;2022-10-15T04:53:18;0.30;;;0.30;;
8423;SDS011;4249;49.072;9.770;2022-10-15T04:56:08;0.52;;;0.43;;
8423;SDS011;4249;49.072;9.770;2022-10-15T04:58:58;1.00;;;0.90;;
8423;SDS011;4249;49.072;9.770;2022-10-15T05:01:45;1.50;;;1.40;;
8423;SDS011;4249;49.072;9.770;2022-10-15T05:04:32;0.80;;;0.80;;
8423;SDS011;4249;49.072;9.770;2022-10-15T05:07:19;0.60;;;0.50;;
8423;SDS011;4249;49.072;9.770;2022-10-15T05:10:07;2.63;;;2.43;;
8423;SDS011;4249;49.072;9.770;2022-10-15T05:12:55;1.05;;;0.77;;
8423;SDS011;4249;49.072;9.770;2022-10-15T05:15:42;0.50;;;0.50;;
8423;SDS011;4249;49.072;9.770;2022-10-15T05:18:30;0.57;;;0.43;;
8423;SDS011;4249;49.072;9.770;2022-10-15T05:21:17;1.47;;;1.17;;
8423;SDS011;4249;49.072;9.770;2022-10-15T05:24:05;2.30;;;1.40;;
8423;SDS011;4249;49.072;9.770;2022-10-15T05:26:52;0.50;;;0.50;;
8423;SDS011;4249;49.072;9.770;2022-10-15T05:29:40;0.80;;;0.80;;
8423;SDS011;4249;49.072;9.770;2022-10-15T05:32:28;0.33;;;0.33;;
8423;SDS011;4249;49.072;9.770;2022-10-15T05:35:15;1.85;;;0.77;;
8423;SDS011;4249;49.072;9.770;2022-10-15T05:38:02;0.70;;;0.70;;
8423;SDS011;4249;49.072;9.770;2022-10-15T05:40:49;0.70;;;0.63;;
8423;SDS011;4249;49.072;9.770;2022-10-15T05:43:37;0.70;;;0.70;;
8423;SDS011;4249;49.072;9.770;2022-10-15T05:46:25;0.60;;;0.60;;
8423;SDS011;4249;49.072;9.770;2022-10-15T05:49:13;1.53;;;0.90;;
8423;SDS011;4249;49.072;9.770;2022-10-15T05:52:00;0.67;;;0.67;;
8423;SDS011;4249;49.072;9.770;2022-10-15T05:54:47;0.63;;;0.50;;
8423;SDS011;4249;49.072;9.770;2022-10-15T05:57:34;0.50;;;0.50;;
8423;SDS011;4249;49.072;9.770;2022-10-15T06:00:21;0.50;;;0.50;;
8423;SDS011;4249;49.072;9.770;2022-10-15T06:03:11;0.83;;;0.60;;
8423;SDS011;4249;49.072;9.770;2022-10-15T06:05:59;0.30;;;0.30;;
8423;SDS011;4249;49.072;9.770;2022-10-15T06:08:47;0.40;;;0.40;;
8423;SDS011;4249;49.072;9.770;2022-10-15T06:11:35;0.73;;;0.70;;
8423;SDS011;4249;49.072;9.770;2022-10-15T06:14:22;0.87;;;0.83;;
8423;SDS011;4249;49.072;9.770;2022-10-15T06:17:10;0.70;;;0.70;;
8423;SDS011;4249;49.072;9.770;2022-10-15T06:19:58;0.60;;;0.60;;
8423;SDS011;4249;49.072;9.770;2022-10-15T06:22:45;0.87;;;0.87;;
8423;SDS011;4249;49.072;9.770;2022-10-15T06:25:32;0.80;;;0.67;;
8423;SDS011;4249;49.072;9.770;2022-10-15T06:28:20;1.60;;;1.30;;
8423;SDS011;4249;49.072;9.770;2022-10-15T06:31:07;2.37;;;1.10;;
8423;SDS011;4249;49.072;9.770;2022-10-15T06:33:54;1.75;;;0.90;;
8423;SDS011;4249;49.072;9.770;2022-10-15T06:36:43;1.20;;;0.70;;
8423;SDS011;4249;49.072;9.770;2022-10-15T06:39:30;2.70;;;1.17;;
8423;SDS011;4249;49.072;9.770;2022-10-15T06:42:17;0.57;;;0.57;;
8423;SDS011;4249;49.072;9.770;2022-10-15T06:45:05;0.80;;;0.80;;
8423;SDS011;4249;49.072;9.770;2022-10-15T06:47:54;1.20;;;0.87;;
8423;SDS011;4249;49.072;9.770;2022-10-15T06:50:41;1.13;;;1.03;;
8423;SDS011;4249;49.072;9.770;2022-10-15T06:53:30;0.70;;;0.70;;
8423;SDS011;4249;49.072;9.770;2022-10-15T06:56:17;0.97;;;0.97;;
8423;SDS011;4249;49.072;9.770;2022-10-15T06:59:04;0.90;;;0.90;;
8423;SDS011;4249;49.072;9.770;2022-10-15T07:01:51;0.87;;;0.87;;
8423;SDS011;4249;49.072;9.770;2022-10-15T07:04:39;1.17;;;0.73;;
8423;SDS011;4249;49.072;9.770;2022-10-15T07:07:26;2.25;;;1.27;;
8423;SDS011;4249;49.072;9.770;2022-10-15T07:10:14;0.60;;;0.60;;
8423;SDS011;4249;49.072;9.770;2022-10-15T07:13:02;0.90;;;0.70;;
8423;SDS011;4249;49.072;9.770;2022-10-15T07:15:49;1.00;;;1.00;;
8423;SDS011;4249;49.072;9.770;2022-10-15T07:18:38;2.07;;;0.93;;
8423;SDS011;4249;49.072;9.770;2022-10-15T07:21:25;2.28;;;1.65;;
8423;SDS011;4249;49.072;9.770;2022-10-15T07:24:13;2.03;;;1.02;;
8423;SDS011;4249;49.072;9.770;2022-10-15T07:27:02;3.78;;;1.00;;
8423;SDS011;4249;49.072;9.770;2022-10-15T07:29:49;2.97;;;0.90;;
8423;SDS011;4249;49.072;9.770;2022-10-15T07:32:36;1.60;;;1.00;;
8423;SDS011;4249;49.072;9.770;2022-10-15T07:35:24;1.73;;;1.58;;
8423;SDS011;4249;49.072;9.770;2022-10-15T07:38:11;1.30;;;1.20;;
8423;SDS011;4249;49.072;9.770;2022-10-15T07:40:59;0.85;;;0.85;;
8423;SDS011;4249;49.072;9.770;2022-10-15T07:43:50;1.80;;;1.10;;
8423;SDS011;4249;49.072;9.770;2022-10-15T07:46:37;0.90;;;0.90;;
8423;SDS011;4249;49.072;9.770;2022-10-15T07:49:24;2.95;;;1.33;;
8423;SDS011;4249;49.072;9.770;2022-10-15T07:52:11;1.73;;;0.88;;
8423;SDS011;4249;49.072;9.770;2022-10-15T07:54:59;2.10;;;1.92;;
8423;SDS011;4249;49.072;9.770;2022-10-15T07:57:46;0.77;;;0.77;;
8423;SDS011;4249;49.072;9.770;2022-10-15T08:00:34;1.10;;;1.00;;
8423;SDS011;4249;49.072;9.770;2022-10-15T08:03:22;1.10;;;1.05;;
8423;SDS011;4249;49.072;9.770;2022-10-15T08:06:09;2.85;;;1.30;;
8423;SDS011;4249;49.072;9.770;2022-10-15T08:08:56;0.93;;;0.93;;
8423;SDS011;4249;49.072;9.770;2022-10-15T08:11:43;1.60;;;1.20;;
8423;SDS011;4249;49.072;9.770;2022-10-15T08:14:31;2.50;;;1.25;;
8423;SDS011;4249;49.072;9.770;2022-10-15T08:17:20;1.88;;;0.70;;
8423;SDS011;4249;49.072;9.770;2022-10-15T08:20:07;0.50;;;0.50;;
8423;SDS011;4249;49.072;9.770;2022-10-15T08:22:55;2.22;;;0.80;;
8423;SDS011;4249;49.072;9.770;2022-10-15T08:25:43;1.35;;;0.90;;
8423;SDS011;4249;49.072;9.770;2022-10-15T08:28:30;3.08;;;1.15;;
8423;SDS011;4249;49.072;9.770;2022-10-15T08:31:18;2.33;;;1.73;;
8423;SDS011;4249;49.072;9.770;2022-10-15T08:34:07;0.88;;;0.88;;
8423;SDS011;4249;49.072;9.770;2022-10-15T08:36:55;0.68;;;0.63;;
8423;SDS011;4249;49.072;9.770;2022-10-15T08:39:42;0.65;;;0.65;;
8423;SDS011;4249;49.072;9.770;2022-10-15T08:42:30;2.20;;;1.17;;
8423;SDS011;4249;49.072;9.770;2022-10-15T08:45:22;1.52;;;1.42;;
8423;SDS011;4249;49.072;9.770;2022-10-15T08:48:14;1.58;;;1.48;;
8423;SDS011;4249;49.072;9.770;2022-10-15T08:51:09;1.70;;;1.15;;
8423;SDS011;4249;49.072;9.770;2022-10-15T08:54:00;3.05;;;1.60;;
8423;SDS011;4249;49.072;9.770;2022-10-15T08:56:50;2.15;;;1.80;;
8423;SDS011;4249;49.072;9.770;2022-10-15T08:59:43;1.95;;;1.63;;
8423;SDS011;4249;49.072;9.770;2022-10-15T09:02:41;2.15;;;1.65;;
8423;SDS011;4249;49.072;9.770;2022-10-15T09:05:37;2.30;;;1.52;;
8423;SDS011;4249;49.072;9.770;2022-10-15T09:08:32;1.40;;;1.30;;
8423;SDS011;4249;49.072;9.770;2022-10-15T09:11:29;2.05;;;1.42;;
8423;SDS011;4249;49.072;9.770;2022-10-15T09:14:28;1.50;;;1.40;;
8423;SDS011;4249;49.072;9.770;2022-10-15T09:17:18;0.73;;;0.73;;
8423;SDS011;4249;49.072;9.770;2022-10-15T09:20:12;1.30;;;1.20;;
8423;SDS011;4249;49.072;9.770;2022-10-15T09:23:02;1.55;;;1.40;;
8423;SDS011;4249;49.072;9.770;2022-10-15T09:25:59;1.33;;;1.20;;
8423;SDS011;4249;49.072;9.770;2022-10-15T09:29:00;2.33;;;1.70;;
8423;SDS011;4249;49.072;9.770;2022-10-15T09:31:53;1.70;;;1.50;;
8423;SDS011;4249;49.072;9.770;2022-10-15T09:34:47;1.58;;;1.20;;
8423;SDS011;4249;49.072;9.770;2022-10-15T09:37:40;3.55;;;2.05;;
8423;SDS011;4249;49.072;9.770;2022-10-15T09:40:36;5.85;;;4.63;;
8423;SDS011;4249;49.072;9.770;2022-10-15T09:43:37;2.00;;;1.38;;
8423;SDS011;4249;49.072;9.770;2022-10-15T09:46:26;2.22;;;1.10;;
8423;SDS011;4249;49.072;9.770;2022-10-15T09:49:13;1.90;;;1.20;;
8423;SDS011;4249;49.072;9.770;2022-10-15T09:52:05;1.95;;;1.60;;
8423;SDS011;4249;49.072;9.770;2022-10-15T09:55:00;2.78;;;1.65;;
8423;SDS011;4249;49.072;9.770;2022-10-15T09:57:55;2.05;;;1.48;;
8423;SDS011;4249;49.072;9.770;2022-10-15T10:00:56;1.65;;;1.55;;
8423;SDS011;4249;49.072;9.770;2022-10-15T10:03:45;2.58;;;1.88;;
8423;SDS011;4249;49.072;9.770;2022-10-15T10:06:42;2.97;;;2.28;;
8423;SDS011;4249;49.072;9.770;2022-10-15T10:09:31;1.58;;;1.40;;
8423;SDS011;4249;49.072;9.770;2022-10-15T10:12:21;1.45;;;0.98;;
8423;SDS011;4249;49.072;9.770;2022-10-15T10:15:23;1.75;;;0.90;;
8423;SDS011;4249;49.072;9.770;2022-10-15T10:18:18;1.83;;;0.95;;
8423;SDS011;4249;49.072;9.770;2022-10-15T10:21:19;2.05;;;0.90;;
8423;SDS011;4249;49.072;9.770;2022-10-15T10:24:18;0.80;;;0.80;;
8423;SDS011;4249;49.072;9.770;2022-10-15T10:30:14;1.13;;;1.10;;
8423;SDS011;4249;49.072;9.770;2022-10-15T10:33:01;1.90;;;1.67;;
8423;SDS011;4249;49.072;9.770;2022-10-15T10:35:51;1.95;;;0.85;;
8423;SDS011;4249;49.072;9.770;2022-10-15T10:38:39;2.28;;;1.83;;
8423;SDS011;4249;49.072;9.770;2022-10-15T10:41:33;5.55;;;4.35;;
8423;SDS011;4249;49.072;9.770;2022-10-15T10:44:35;1.92;;;1.70;;
8423;SDS011;4249;49.072;9.770;2022-10-15T10:47:24;2.22;;;2.03;;
8423;SDS011;4249;49.072;9.770;2022-10-15T10:50:26;7.40;;;5.82;;
8423;SDS011;4249;49.072;9.770;2022-10-15T10:53:21;2.75;;;2.45;;
8423;SDS011;4249;49.072;9.770;2022-10-15T10:56:09;2.45;;;2.25;;
8423;SDS011;4249;49.072;9.770;2022-10-15T10:59:01;1.55;;;1.45;;
8423;SDS011;4249;49.072;9.770;2022-10-15T11:01:55;4.18;;;3.88;;
8423;SDS011;4249;49.072;9.770;2022-10-15T11:04:23;3.55;;;1.80;;
8423;SDS011;4249;49.072;9.770;2022-10-15T11:06:55;2.03;;;1.55;;
8423;SDS011;4249;49.072;9.770;2022-10-15T11:09:47;1.60;;;0.80;;
8423;SDS011;4249;49.072;9.770;2022-10-15T11:12:26;0.77;;;0.70;;
8423;SDS011;4249;49.072;9.770;2022-10-15T11:15:02;1.30;;;0.60;;
8423;SDS011;4249;49.072;9.770;2022-10-15T11:17:47;0.90;;;0.90;;
8423;SDS011;4249;49.072;9.770;2022-10-15T11:20:22;1.27;;;0.90;;
8423;SDS011;4249;49.072;9.770;2022-10-15T11:22:57;0.85;;;0.82;;
8423;SDS011;4249;49.072;9.770;2022-10-15T11:25:58;1.45;;;0.80;;
8423;SDS011;4249;49.072;9.770;2022-10-15T11:29:10;0.85;;;0.82;;
8423;SDS011;4249;49.072;9.770;2022-10-15T11:32:04;1.55;;;1.02;;
8423;SDS011;4249;49.072;9.770;2022-10-15T11:35:09;0.52;;;0.52;;
8423;SDS011;4249;49.072;9.770;2022-10-15T11:38:12;2.22;;;0.82;;
8423;SDS011;4249;49.072;9.770;2022-10-15T11:41:10;2.60;;;0.80;;
8423;SDS011;4249;49.072;9.770;2022-10-15T11:44:22;0.70;;;0.70;;
8423;SDS011;4249;49.072;9.770;2022-10-15T11:47:20;0.80;;;0.80;;
8423;SDS011;4249;49.072;9.770;2022-10-15T11:50:20;2.53;;;0.77;;
8423;SDS011;4249;49.072;9.770;2022-10-15T11:53:27;1.67;;;0.93;;
8423;SDS011;4249;49.072;9.770;2022-10-15T11:56:40;0.85;;;0.73;;
8423;SDS011;4249;49.072;9.770;2022-10-15T11:59:32;2.25;;;1.27;;
8423;SDS011;4249;49.072;9.770;2022-10-15T12:02:25;3.50;;;1.00;;
8423;SDS011;4249;49.072;9.770;2022-10-15T12:05:17;1.38;;;0.90;;
8423;SDS011;4249;49.072;9.770;2022-10-15T12:08:07;1.40;;;1.30;;
8423;SDS011;4249;49.072;9.770;2022-10-15T12:11:02;2.08;;;0.90;;
8423;SDS011;4249;49.072;9.770;2022-10-15T12:13:58;2.03;;;0.73;;
8423;SDS011;4249;49.072;9.770;2022-10-15T12:16:53;1.77;;;0.90;;
8423;SDS011;4249;49.072;9.770;2022-10-15T12:19:48;0.88;;;0.68;;
8423;SDS011;4249;49.072;9.770;2022-10-15T12:22:39;1.95;;;1.55;;
8423;SDS011;4249;49.072;9.770;2022-10-15T12:25:40;1.10;;;0.90;;
8423;SDS011;4249;49.072;9.770;2022-10-15T12:28:29;1.70;;;1.60;;
8423;SDS011;4249;49.072;9.770;2022-10-15T12:31:19;1.58;;;0.88;;
8423;SDS011;4249;49.072;9.770;2022-10-15T12:34:17;1.00;;;0.90;;
8423;SDS011;4249;49.072;9.770;2022-10-15T12:37:14;2.80;;;1.23;;
8423;SDS011;4249;49.072;9.770;2022-10-15T12:40:04;0.98;;;0.98;;
8423;SDS011;4249;49.072;9.770;2022-10-15T12:43:12;3.17;;;1.23;;
8423;SDS011;4249;49.072;9.770;2022-10-15T12:46:02;1.88;;;1.02;;
8423;SDS011;4249;49.072;9.770;2022-10-15T12:48:52;1.75;;;1.02;;
8423;SDS011;4249;49.072;9.770;2022-10-15T12:51:42;1.38;;;1.27;;
8423;SDS011;4249;49.072;9.770;2022-10-15T12:54:37;0.77;;;0.77;;
8423;SDS011;4249;49.072;9.770;2022-10-15T13:00:39;2.92;;;1.08;;
8423;SDS011;4249;49.072;9.770;2022-10-15T13:03:33;2.33;;;1.17;;
8423;SDS011;4249;49.072;9.770;2022-10-15T13:06:26;1.60;;;1.20;;
8423;SDS011;4249;49.072;9.770;2022-10-15T13:09:21;2.10;;;1.20;;
8423;SDS011;4249;49.072;9.770;2022-10-15T13:12:18;3.63;;;1.10;;
8423;SDS011;4249;49.072;9.770;2022-10-15T13:15:09;1.45;;;1.25;;
8423;SDS011;4249;49.072;9.770;2022-10-15T13:18:04;1.88;;;1.30;;
8423;SDS011;4249;49.072;9.770;2022-10-15T13:20:53;1.45;;;1.17;;
8423;SDS011;4249;49.072;9.770;2022-10-15T13:23:45;1.55;;;1.05;;
8423;SDS011;4249;49.072;9.770;2022-10-15T13:26:33;1.88;;;1.30;;
8423;SDS011;4249;49.072;9.770;2022-10-15T13:29:21;2.88;;;1.45;;
8423;SDS011;4249;49.072;9.770;2022-10-15T13:32:11;3.95;;;1.58;;
8423;SDS011;4249;49.072;9.770;2022-10-15T13:35:01;1.83;;;1.30;;
8423;SDS011;4249;49.072;9.770;2022-10-15T13:37:54;3.35;;;1.30;;
8423;SDS011;4249;49.072;9.770;2022-10-15T13:40:46;4.10;;;1.23;;
8423;SDS011;4249;49.072;9.770;2022-10-15T13:43:34;3.67;;;1.42;;
8423;SDS011;4249;49.072;9.770;2022-10-15T13:46:22;1.35;;;1.25;;
8423;SDS011;4249;49.072;9.770;2022-10-15T13:49:11;2.78;;;1.30;;
8423;SDS011;4249;49.072;9.770;2022-10-15T13:51:58;1.35;;;1.25;;
8423;SDS011;4249;49.072;9.770;2022-10-15T13:54:46;2.33;;;1.20;;
8423;SDS011;4249;49.072;9.770;2022-10-15T13:57:34;2.15;;;1.40;;
8423;SDS011;4249;49.072;9.770;2022-10-15T14:00:23;2.10;;;1.13;;
8423;SDS011;4249;49.072;9.770;2022-10-15T14:03:16;3.85;;;1.27;;
8423;SDS011;4249;49.072;9.770;2022-10-15T14:06:10;1.13;;;1.00;;
8423;SDS011;4249;49.072;9.770;2022-10-15T14:09:10;1.50;;;1.02;;
8423;SDS011;4249;49.072;9.770;2022-10-15T14:12:04;1.65;;;1.20;;
8423;SDS011;4249;49.072;9.770;2022-10-15T14:14:54;1.20;;;1.10;;
8423;SDS011;4249;49.072;9.770;2022-10-15T14:17:41;3.17;;;2.10;;
8423;SDS011;4249;49.072;9.770;2022-10-15T14:20:28;2.55;;;1.10;;
8423;SDS011;4249;49.072;9.770;2022-10-15T14:23:16;1.60;;;0.90;;
8423;SDS011;4249;49.072;9.770;2022-10-15T14:26:08;1.27;;;0.93;;
8423;SDS011;4249;49.072;9.770;2022-10-15T14:28:56;1.52;;;1.23;;
8423;SDS011;4249;49.072;9.770;2022-10-15T14:31:46;1.17;;;1.00;;
8423;SDS011;4249;49.072;9.770;2022-10-15T14:34:36;1.30;;;1.10;;
8423;SDS011;4249;49.072;9.770;2022-10-15T14:37:30;1.80;;;1.00;;
8423;SDS011;4249;49.072;9.770;2022-10-15T14:40:25;1.15;;;1.05;;
8423;SDS011;4249;49.072;9.770;2022-10-15T14:43:14;1.00;;;0.88;;
8423;SDS011;4249;49.072;9.770;2022-10-15T14:46:03;1.02;;;0.90;;
8423;SDS011;4249;49.072;9.770;2022-10-15T14:48:54;1.23;;;1.13;;
8423;SDS011;4249;49.072;9.770;2022-10-15T14:51:41;2.13;;;1.20;;
8423;SDS011;4249;49.072;9.770;2022-10-15T14:54:37;3.58;;;1.63;;
8423;SDS011;4249;49.072;9.770;2022-10-15T14:57:28;3.00;;;1.27;;
8423;SDS011;4249;49.072;9.770;2022-10-15T15:00:21;1.67;;;1.10;;
8423;SDS011;4249;49.072;9.770;2022-10-15T15:03:12;1.45;;;1.35;;
8423;SDS011;4249;49.072;9.770;2022-10-15T15:06:02;1.70;;;1.40;;
8423;SDS011;4249;49.072;9.770;2022-10-15T15:08:50;1.67;;;1.38;;
8423;SDS011;4249;49.072;9.770;2022-10-15T15:11:37;2.20;;;1.10;;
8423;SDS011;4249;49.072;9.770;2022-10-15T15:14:24;1.85;;;1.25;;
8423;SDS011;4249;49.072;9.770;2022-10-15T15:17:13;2.22;;;1.50;;
8423;SDS011;4249;49.072;9.770;2022-10-15T15:20:02;1.52;;;1.17;;
8423;SDS011;4249;49.072;9.770;2022-10-15T15:22:52;2.60;;;1.77;;
8423;SDS011;4249;49.072;9.770;2022-10-15T15:25:40;2.78;;;1.60;;
8423;SDS011;4249;49.072;9.770;2022-10-15T15:28:27;1.48;;;1.38;;
8423;SDS011;4249;49.072;9.770;2022-10-15T15:31:15;1.58;;;1.23;;
8423;SDS011;4249;49.072;9.770;2022-10-15T15:34:03;4.45;;;1.60;;
8423;SDS011;4249;49.072;9.770;2022-10-15T15:36:50;2.80;;;1.35;;
8423;SDS011;4249;49.072;9.770;2022-10-15T15:39:39;1.65;;;1.55;;
8423;SDS011;4249;49.072;9.770;2022-10-15T15:42:26;2.58;;;1.60;;
8423;SDS011;4249;49.072;9.770;2022-10-15T15:45:14;3.20;;;1.63;;
8423;SDS011;4249;49.072;9.770;2022-10-15T15:48:04;2.35;;;1.58;;
8423;SDS011;4249;49.072;9.770;2022-10-15T15:50:51;2.75;;;1.40;;
8423;SDS011;4249;49.072;9.770;2022-10-15T15:53:38;2.28;;;1.60;;
8423;SDS011;4249;49.072;9.770;2022-10-15T15:56:27;1.58;;;1.48;;
8423;SDS011;4249;49.072;9.770;2022-10-15T15:59:14;3.35;;;1.80;;
8423;SDS011;4249;49.072;9.770;2022-10-15T16:02:03;2.88;;;1.55;;
8423;SDS011;4249;49.072;9.770;2022-10-15T16:04:51;2.78;;;1.30;;
8423;SDS011;4249;49.072;9.770;2022-10-15T16:07:38;3.22;;;1.40;;
8423;SDS011;4249;49.072;9.770;2022-10-15T16:10:25;2.78;;;1.40;;
8423;SDS011;4249;49.072;9.770;2022-10-15T16:13:13;2.78;;;1.80;;
8423;SDS011;4249;49.072;9.770;2022-10-15T16:16:01;3.22;;;1.60;;
8423;SDS011;4249;49.072;9.770;2022-10-15T16:18:48;2.05;;;1.45;;
8423;SDS011;4249;49.072;9.770;2022-10-15T16:21:35;3.05;;;1.50;;
8423;SDS011;4249;49.072;9.770;2022-10-15T16:24:22;2.83;;;1.60;;
8423;SDS011;4249;49.072;9.770;2022-10-15T16:27:10;4.13;;;2.13;;
8423;SDS011;4249;49.072;9.770;2022-10-15T16:29:58;3.83;;;1.80;;
8423;SDS011;4249;49.072;9.770;2022-10-15T16:32:45;6.05;;;1.80;;
8423;SDS011;4249;49.072;9.770;2022-10-15T16:35:32;3.15;;;1.73;;
8423;SDS011;4249;49.072;9.770;2022-10-15T16:38:20;2.60;;;1.73;;
8423;SDS011;4249;49.072;9.770;2022-10-15T16:41:07;1.92;;;1.77;;
8423;SDS011;4249;49.072;9.770;2022-10-15T16:43:55;2.88;;;2.40;;
8423;SDS011;4249;49.072;9.770;2022-10-15T16:46:44;4.07;;;2.33;;
8423;SDS011;4249;49.072;9.770;2022-10-15T16:49:31;8.35;;;2.20;;
8423;SDS011;4249;49.072;9.770;2022-10-15T16:52:18;2.35;;;2.10;;
8423;SDS011;4249;49.072;9.770;2022-10-15T16:55:05;1.92;;;1.80;;
8423;SDS011;4249;49.072;9.770;2022-10-15T16:57:53;1.88;;;1.70;;
8423;SDS011;4249;49.072;9.770;2022-10-15T17:00:40;4.00;;;2.13;;
8423;SDS011;4249;49.072;9.770;2022-10-15T17:03:29;3.92;;;2.20;;
8423;SDS011;4249;49.072;9.770;2022-10-15T17:06:18;2.95;;;1.98;;
8423;SDS011;4249;49.072;9.770;2022-10-15T17:09:06;3.30;;;2.63;;
8423;SDS011;4249;49.072;9.770;2022-10-15T17:11:54;2.20;;;1.85;;
8423;SDS011;4249;49.072;9.770;2022-10-15T17:14:41;2.00;;;1.80;;
8423;SDS011;4249;49.072;9.770;2022-10-15T17:17:35;4.75;;;2.50;;
8423;SDS011;4249;49.072;9.770;2022-10-15T17:20:23;3.05;;;2.35;;
8423;SDS011;4249;49.072;9.770;2022-10-15T17:23:10;3.35;;;1.73;;
8423;SDS011;4249;49.072;9.770;2022-10-15T17:26:01;3.35;;;1.70;;
8423;SDS011;4249;49.072;9.770;2022-10-15T17:28:49;1.85;;;1.70;;
8423;SDS011;4249;49.072;9.770;2022-10-15T17:31:37;3.22;;;1.55;;
8423;SDS011;4249;49.072;9.770;2022-10-15T17:34:24;2.05;;;1.70;;
8423;SDS011;4249;49.072;9.770;2022-10-15T17:37:13;4.88;;;2.25;;
8423;SDS011;4249;49.072;9.770;2022-10-15T17:40:00;3.88;;;2.10;;
8423;SDS011;4249;49.072;9.770;2022-10-15T17:42:48;3.33;;;1.85;;